Archival Weather

Chicago O'Hare International

Chicago, Illinois (KORD)

Report from: Monday, December 12, 2022 10:36 AM CST
Current time: Friday, June 21, 2024 3:25 AM CDT

Current weather – Weather history – Daily summaries
Weather forecast

Temperature4.4°C (39.9°F)
Wind chill1.4°C (34.5°F)
Dew point1.1°C (34.0°F)
Winds 7 kts (3.6 m/s, 8.1 mph) East (90°)
Visibility10 mi. (16.1 km)
Clouds Few clouds 1,500 ft. (457 m)
Scattered clouds 2,600 ft. (792 m)
Ceiling: Overcast 3,400 ft. (1,036 m)
Altimeter30.30 in.Hg (1026 mB)
PrecipitiationTrace
Precip. events Rain ended 4:19 PM
Relative humidity79 %
Density altitude-1,618 ft. (-493 m)
Remarks Automated weather observing station with precipitation discriminator
Flight conditions Visual Meteorological Conditions
Raw dataKORD 121636Z 09007KT 10SM FEW015 SCT026 OVC034 04/01 A3030 RMK AO2 RAE19 P0000 T00440011
An error has occurred. This application may no longer respond until reloaded. Reload 🗙